Time;durP1;ratioP1;P1;durP2;ratioP2;P2;SDS_P1;SDS_P2;PMS_P1;PMS_P2;Temp;Humidity;BMP_temperature;BMP_pressure;BME280_temperature;BME280_humidity;BME280_pressure;Samples;Min_cycle;Max_cycle;Signal;HPM_P1;HPM_P2
2022/07/20 00:00:32;;;;;;;8.27;4.50;;;22.40;99.90;;;;;;5094666;28;20726;-71
2022/07/20 00:03:09;;;;;;;8.45;4.43;;;22.30;99.90;;;;;;5095627;28;20730;-71
2022/07/20 00:05:35;;;;;;;8.25;4.35;;;22.30;99.90;;;;;;5094619;28;20199;-71
2022/07/20 00:08:02;;;;;;;8.43;4.57;;;22.20;99.90;;;;;;5094486;28;20181;-72
2022/07/20 00:13:13;;;;;;;8.30;5.00;;;22.20;99.90;;;;;;5095283;28;20187;-71
2022/07/20 00:15:40;;;;;;;9.93;4.82;;;22.20;99.90;;;;;;5096040;28;20563;-72
2022/07/20 00:18:06;;;;;;;8.63;4.70;;;22.10;99.90;;;;;;5095269;28;20181;-72
2022/07/20 00:20:32;;;;;;;6.80;4.40;;;22.10;99.90;;;;;;5094220;28;20169;-72
2022/07/20 00:22:58;;;;;;;8.00;4.97;;;22.10;99.90;;;;;;5095435;28;20573;-72
2022/07/20 00:25:25;;;;;;;8.15;4.57;;;21.90;99.90;;;;;;5095701;28;20188;-72
2022/07/20 00:27:51;;;;;;;8.65;4.72;;;21.90;99.90;;;;;;5093853;28;20256;-72
2022/07/20 00:30:17;;;;;;;6.63;4.47;;;21.90;99.90;;;;;;5095251;28;20259;-72
2022/07/20 00:32:43;;;;;;;8.27;4.65;;;21.80;99.90;;;;;;5095172;28;20189;-72
2022/07/20 00:35:11;;;;;;;7.03;4.70;;;21.80;99.90;;;;;;5095364;28;20200;-72
2022/07/20 00:37:37;;;;;;;6.50;4.15;;;21.80;99.90;;;;;;5095065;28;20201;-72
2022/07/20 00:40:05;;;;;;;7.47;4.78;;;21.80;99.90;;;;;;5095843;28;20161;-71
2022/07/20 00:42:33;;;;;;;8.98;4.88;;;21.70;99.90;;;;;;5094877;28;20246;-72
2022/07/20 00:44:59;;;;;;;7.82;4.82;;;21.60;99.90;;;;;;5095050;28;20169;-72
2022/07/20 00:47:24;;;;;;;8.23;4.80;;;21.60;99.90;;;;;;5094999;28;20188;-72
2022/07/20 00:49:50;;;;;;;9.13;5.00;;;21.60;99.90;;;;;;5094855;28;20185;-72
2022/07/20 00:52:16;;;;;;;10.88;5.88;;;21.50;99.90;;;;;;5094767;28;20245;-72
2022/07/20 00:54:45;;;;;;;10.57;5.68;;;21.50;99.90;;;;;;5094716;28;20189;-72
2022/07/20 00:57:10;;;;;;;6.13;4.55;;;21.40;99.90;;;;;;5094433;28;20250;-72
2022/07/20 00:59:36;;;;;;;7.57;4.82;;;21.40;99.90;;;;;;5094702;28;20205;-72
2022/07/20 01:02:02;;;;;;;7.63;4.70;;;21.40;99.90;;;;;;5095080;28;20197;-72
2022/07/20 01:04:28;;;;;;;8.25;4.20;;;21.40;99.90;;;;;;5094675;28;20177;-72
2022/07/20 01:06:53;;;;;;;6.35;4.78;;;21.40;99.90;;;;;;5094660;28;20173;-72
2022/07/20 01:09:20;;;;;;;9.52;4.35;;;21.30;99.90;;;;;;5094644;28;20213;-72
2022/07/20 01:11:46;;;;;;;7.45;4.40;;;21.30;99.90;;;;;;5094643;28;20653;-72
2022/07/20 01:14:12;;;;;;;7.65;4.60;;;21.30;99.90;;;;;;5094596;28;20275;-72
2022/07/20 01:16:38;;;;;;;10.60;4.78;;;21.30;99.90;;;;;;5094797;28;20645;-72
2022/07/20 01:19:05;;;;;;;7.53;4.93;;;21.20;99.90;;;;;;5094471;28;20192;-72
2022/07/20 01:21:32;;;;;;;8.45;4.97;;;21.20;99.90;;;;;;5094691;28;20200;-72
2022/07/20 01:23:58;;;;;;;8.82;4.22;;;21.20;99.90;;;;;;5094679;28;20208;-73
2022/07/20 01:26:24;;;;;;;8.20;4.63;;;21.10;99.90;;;;;;5093480;28;20180;-72
2022/07/20 01:28:50;;;;;;;7.70;4.60;;;21.10;99.90;;;;;;5094067;28;20177;-72
2022/07/20 01:31:16;;;;;;;8.98;4.65;;;21.10;99.90;;;;;;5092955;28;20727;-72
2022/07/20 01:33:42;;;;;;;6.55;4.43;;;21.00;99.90;;;;;;5094432;28;20581;-72
2022/07/20 01:36:08;;;;;;;8.93;4.60;;;20.90;99.90;;;;;;5093031;28;20224;-72
2022/07/20 01:38:34;;;;;;;8.30;4.60;;;20.90;99.90;;;;;;5094501;28;20637;-73
2022/07/20 01:40:59;;;;;;;10.15;4.95;;;20.90;99.90;;;;;;5094266;28;20204;-72
2022/07/20 01:43:25;;;;;;;10.38;5.57;;;20.90;99.90;;;;;;5092624;28;20180;-72
2022/07/20 01:45:51;;;;;;;8.55;4.95;;;20.80;99.90;;;;;;5094520;28;20704;-72
2022/07/20 01:48:17;;;;;;;10.85;4.95;;;20.70;99.90;;;;;;5094431;28;20177;-74
2022/07/20 01:50:42;;;;;;;7.82;4.60;;;20.60;99.90;;;;;;5093910;28;20176;-72
2022/07/20 01:53:08;;;;;;;6.70;4.63;;;20.50;99.90;;;;;;5094253;28;20189;-72
2022/07/20 01:55:35;;;;;;;8.70;4.55;;;20.40;99.90;;;;;;5093982;28;20211;-73
2022/07/20 01:58:00;;;;;;;8.68;5.25;;;20.30;99.90;;;;;;5094169;28;20161;-72
2022/07/20 02:00:27;;;;;;;10.90;5.20;;;20.20;99.90;;;;;;5092751;28;20255;-72
2022/07/20 02:02:53;;;;;;;9.73;4.80;;;20.20;99.90;;;;;;5093998;28;20573;-72
2022/07/20 02:05:19;;;;;;;8.63;4.75;;;20.20;99.90;;;;;;5094128;28;20169;-72
2022/07/20 02:07:45;;;;;;;7.07;4.25;;;20.10;99.90;;;;;;5094088;28;20583;-72
2022/07/20 02:10:13;;;;;;;10.68;4.28;;;20.00;99.90;;;;;;5094012;28;20177;-72
2022/07/20 02:12:40;;;;;;;7.70;4.45;;;19.90;99.90;;;;;;5093449;28;20189;-72
2022/07/20 02:15:08;;;;;;;8.18;4.22;;;19.90;99.90;;;;;;5093801;28;20284;-72
2022/07/20 02:17:33;;;;;;;8.93;4.88;;;19.80;99.90;;;;;;5093775;28;20189;-72
2022/07/20 02:19:59;;;;;;;8.00;4.72;;;19.80;99.90;;;;;;5094530;28;20158;-72
2022/07/20 02:22:26;;;;;;;7.18;4.78;;;19.70;99.90;;;;;;5093946;28;20330;-72
2022/07/20 02:24:52;;;;;;;9.00;4.70;;;19.60;99.90;;;;;;5094693;28;20180;-72
2022/07/20 02:27:18;;;;;;;6.95;4.45;;;19.60;99.90;;;;;;5094539;28;20169;-72
2022/07/20 02:29:43;;;;;;;9.35;4.80;;;19.50;99.90;;;;;;5094833;28;20223;-72
2022/07/20 02:32:09;;;;;;;8.98;5.00;;;19.50;99.90;;;;;;5098076;28;20197;-72
2022/07/20 02:34:35;;;;;;;8.32;5.15;;;19.50;99.90;;;;;;5097114;28;20630;-72
2022/07/20 02:37:01;;;;;;;9.20;4.85;;;19.50;99.90;;;;;;5096606;28;20200;-72
2022/07/20 02:39:26;;;;;;;6.53;4.47;;;19.50;99.90;;;;;;5097812;28;20169;-72
2022/07/20 02:41:52;;;;;;;6.55;4.43;;;19.50;99.90;;;;;;5096217;28;20283;-72
2022/07/20 02:44:18;;;;;;;7.95;4.72;;;19.50;99.90;;;;;;5097571;28;20172;-72
2022/07/20 02:46:43;;;;;;;7.57;5.07;;;19.40;99.90;;;;;;5096501;27;20650;-72
2022/07/20 02:49:09;;;;;;;5.85;4.65;;;19.40;99.90;;;;;;5097722;28;20204;-73
2022/07/20 02:51:35;;;;;;;7.15;4.70;;;19.40;99.90;;;;;;5096327;28;20252;-72
2022/07/20 02:54:01;;;;;;;7.35;4.70;;;19.40;99.90;;;;;;5110779;28;20196;-72
2022/07/20 02:56:33;;;;;;;7.80;4.40;;;19.40;99.90;;;;;;5117691;28;20215;-72
2022/07/20 02:58:58;;;;;;;8.77;5.50;;;19.30;99.90;;;;;;5116216;28;20257;-72
2022/07/20 03:01:24;;;;;;;10.93;4.47;;;19.30;99.90;;;;;;5117346;28;20200;-72
2022/07/20 03:03:50;;;;;;;7.25;4.88;;;19.30;99.90;;;;;;5117440;28;20775;-72
2022/07/20 03:06:16;;;;;;;11.18;5.07;;;19.20;99.90;;;;;;5116645;28;20183;-72
2022/07/20 03:08:42;;;;;;;7.30;4.50;;;19.20;99.90;;;;;;5117440;28;20168;-72
2022/07/20 03:11:08;;;;;;;9.95;4.97;;;19.20;99.90;;;;;;5117389;28;20683;-74
2022/07/20 03:13:34;;;;;;;8.48;5.30;;;19.10;99.90;;;;;;5117592;28;20560;-71
2022/07/20 03:15:59;;;;;;;8.30;5.30;;;19.10;99.90;;;;;;5117458;28;20235;-71
2022/07/20 03:18:25;;;;;;;7.22;4.95;;;19.10;99.90;;;;;;5117597;28;20540;-71
2022/07/20 03:20:51;;;;;;;10.98;5.10;;;19.10;99.90;;;;;;5117434;28;20177;-71
2022/07/20 03:23:16;;;;;;;8.25;5.10;;;19.00;99.90;;;;;;5117335;28;20185;-71
2022/07/20 03:25:42;;;;;;;9.70;5.30;;;19.00;99.90;;;;;;5117259;28;20645;-71
2022/07/20 03:28:09;;;;;;;11.63;5.00;;;19.00;99.90;;;;;;5117120;28;20177;-71
2022/07/20 03:30:35;;;;;;;8.35;5.05;;;19.00;99.90;;;;;;5117274;28;20157;-71
2022/07/20 03:33:00;;;;;;;11.00;5.15;;;18.90;99.90;;;;;;5118308;28;20172;-71
2022/07/20 03:35:26;;;;;;;7.47;4.80;;;18.90;99.90;;;;;;5119684;28;20196;-71
2022/07/20 03:37:52;;;;;;;7.60;4.82;;;18.90;99.90;;;;;;5119479;28;20168;-71
2022/07/20 03:40:18;;;;;;;10.55;4.95;;;18.90;99.90;;;;;;5119815;28;20191;-71
2022/07/20 03:42:43;;;;;;;9.05;5.00;;;18.80;99.90;;;;;;5117147;28;20184;-70
2022/07/20 03:45:09;;;;;;;9.27;5.22;;;18.90;99.90;;;;;;5117107;28;20204;-70
2022/07/20 03:47:35;;;;;;;10.05;4.50;;;18.90;99.90;;;;;;5116857;28;20206;-70
2022/07/20 03:50:01;;;;;;;8.70;5.00;;;18.90;99.90;;;;;;5115139;28;20180;-70
2022/07/20 03:52:27;;;;;;;12.05;5.05;;;18.90;99.90;;;;;;5116100;28;20196;-71
2022/07/20 03:54:53;;;;;;;12.48;4.85;;;18.90;99.90;;;;;;5114800;28;20267;-71
2022/07/20 03:57:18;;;;;;;10.75;5.05;;;18.90;99.90;;;;;;5116048;28;20169;-71
2022/07/20 03:59:44;;;;;;;10.27;5.32;;;18.80;99.90;;;;;;5116167;28;20200;-71
2022/07/20 04:02:10;;;;;;;7.63;4.95;;;18.90;99.90;;;;;;5116166;28;20196;-71
2022/07/20 04:04:36;;;;;;;8.63;4.55;;;18.80;99.90;;;;;;5116019;28;20168;-71
2022/07/20 04:07:02;;;;;;;6.45;4.20;;;18.90;99.90;;;;;;5116687;28;20199;-71
2022/07/20 04:09:48;;;;;;;7.38;4.80;;;18.80;99.90;;;;;;5116341;28;20247;-71
2022/07/20 04:12:20;;;;;;;10.00;4.60;;;18.80;99.90;;;;;;5116248;28;20233;-71
2022/07/20 04:14:47;;;;;;;8.85;4.47;;;18.90;99.90;;;;;;5116185;28;20617;-71
2022/07/20 04:17:13;;;;;;;9.35;5.20;;;18.90;99.90;;;;;;5114575;28;20601;-71
2022/07/20 04:19:39;;;;;;;8.68;4.80;;;18.90;99.90;;;;;;5116259;28;20156;-72
2022/07/20 04:22:05;;;;;;;6.95;4.43;;;18.90;99.90;;;;;;5114592;28;20192;-72
2022/07/20 04:24:32;;;;;;;11.10;4.68;;;19.00;99.90;;;;;;5114406;28;20237;-72
2022/07/20 04:26:57;;;;;;;7.97;4.53;;;19.00;99.90;;;;;;5115646;28;20633;-72
2022/07/20 04:29:23;;;;;;;7.55;4.53;;;19.10;99.90;;;;;;5115981;28;20197;-72
2022/07/20 04:31:50;;;;;;;7.70;4.50;;;19.10;99.90;;;;;;5115814;28;20305;-72
2022/07/20 04:34:16;;;;;;;11.68;4.70;;;19.10;99.90;;;;;;5115546;28;20184;-72
2022/07/20 04:36:41;;;;;;;7.30;4.55;;;19.20;99.90;;;;;;5115617;28;20203;-72
2022/07/20 04:39:07;;;;;;;7.05;4.38;;;19.20;99.90;;;;;;5115768;28;20176;-72
2022/07/20 04:41:33;;;;;;;7.35;5.05;;;19.30;99.90;;;;;;5115529;28;20268;-72
2022/07/20 04:43:59;;;;;;;7.40;4.60;;;19.30;99.90;;;;;;5115201;28;20538;-72
2022/07/20 04:46:25;;;;;;;8.50;4.70;;;19.40;99.90;;;;;;5115295;28;20229;-72
2022/07/20 04:48:50;;;;;;;5.25;4.05;;;19.50;99.90;;;;;;5113801;28;20225;-72
2022/07/20 04:51:16;;;;;;;8.18;4.45;;;19.50;99.90;;;;;;5115253;27;20241;-72
2022/07/20 04:53:42;;;;;;;9.77;4.63;;;19.60;99.90;;;;;;5114256;28;20184;-72
2022/07/20 04:56:09;;;;;;;7.10;4.60;;;19.70;99.90;;;;;;5114884;28;20217;-72
2022/07/20 04:58:35;;;;;;;7.80;4.93;;;19.70;99.90;;;;;;5114680;28;20191;-72
2022/07/20 05:01:01;;;;;;;5.05;4.10;;;19.80;99.90;;;;;;5113508;28;20729;-72
2022/07/20 05:03:27;;;;;;;7.70;4.65;;;19.90;99.90;;;;;;5115039;27;20629;-72
2022/07/20 05:05:53;;;;;;;10.70;4.70;;;20.00;99.90;;;;;;5114870;28;20175;-72
2022/07/20 05:08:20;;;;;;;7.93;4.47;;;20.10;99.90;;;;;;5114734;28;20168;-72
2022/07/20 05:10:46;;;;;;;10.27;4.85;;;20.10;99.90;;;;;;5114707;28;20161;-72
2022/07/20 05:13:12;;;;;;;7.05;4.40;;;20.20;99.90;;;;;;5113147;28;20180;-72
2022/07/20 05:15:37;;;;;;;7.85;4.20;;;20.20;99.90;;;;;;5114741;28;20206;-72
2022/07/20 05:18:03;;;;;;;9.77;4.70;;;20.30;99.90;;;;;;5114498;28;20180;-72
2022/07/20 05:20:29;;;;;;;5.28;4.25;;;20.30;99.90;;;;;;5114070;28;20590;-72
2022/07/20 05:22:55;;;;;;;8.43;4.60;;;20.40;99.90;;;;;;5113838;28;20205;-72
2022/07/20 05:25:20;;;;;;;7.95;4.65;;;20.50;99.90;;;;;;5114144;28;20259;-72
2022/07/20 05:27:46;;;;;;;7.95;4.47;;;20.60;99.90;;;;;;5113806;28;20176;-72
2022/07/20 05:30:12;;;;;;;6.57;3.88;;;20.70;99.90;;;;;;5113721;28;20207;-72
2022/07/20 05:32:38;;;;;;;6.38;4.00;;;21.10;99.90;;;;;;5113555;28;20200;-72
2022/07/20 05:35:05;;;;;;;8.05;4.00;;;21.30;99.90;;;;;;5113682;28;20286;-72
2022/07/20 05:37:31;;;;;;;6.25;4.20;;;21.60;99.90;;;;;;5113483;28;20602;-72
2022/07/20 05:39:57;;;;;;;5.60;4.00;;;21.80;99.90;;;;;;5113378;28;20199;-72
2022/07/20 05:42:22;;;;;;;9.23;4.30;;;21.90;99.90;;;;;;5112605;28;20553;-72
2022/07/20 05:44:48;;;;;;;8.13;4.22;;;22.00;99.90;;;;;;5115077;28;20176;-70
2022/07/20 05:47:14;;;;;;;6.28;3.40;;;22.20;99.90;;;;;;5114051;28;20596;-70
2022/07/20 05:49:40;;;;;;;9.80;4.22;;;22.30;99.90;;;;;;5115566;28;20196;-72
2022/07/20 05:52:06;;;;;;;7.95;4.07;;;22.40;99.90;;;;;;5113948;28;20188;-70
2022/07/20 05:54:32;;;;;;;6.30;4.00;;;22.50;99.90;;;;;;5115524;28;20181;-72
2022/07/20 05:56:58;;;;;;;5.25;3.83;;;22.60;99.90;;;;;;5114923;28;20715;-73
2022/07/20 05:59:23;;;;;;;13.18;4.88;;;22.70;99.90;;;;;;5112375;28;20191;-73
2022/07/20 06:01:49;;;;;;;7.72;4.30;;;22.80;99.90;;;;;;5113921;28;20192;-73
2022/07/20 06:04:15;;;;;;;14.13;4.78;;;22.90;99.90;;;;;;5113748;28;20183;-73
2022/07/20 06:06:41;;;;;;;8.32;4.60;;;23.00;99.90;;;;;;5111860;28;20712;-73
2022/07/20 06:09:08;;;;;;;9.60;4.97;;;23.10;99.90;;;;;;5112133;28;20207;-73
2022/07/20 06:11:35;;;;;;;8.85;4.40;;;23.30;99.90;;;;;;5112150;28;20200;-73
2022/07/20 06:14:01;;;;;;;9.65;4.20;;;23.60;99.90;;;;;;5114035;28;20532;-73
2022/07/20 06:16:28;;;;;;;12.82;4.68;;;24.00;99.90;;;;;;5113821;28;20325;-73
2022/07/20 06:18:53;;;;;;;9.88;4.45;;;24.30;99.90;;;;;;5069238;28;1275685;-71
2022/07/20 06:21:19;;;;;;;9.15;4.32;;;24.40;99.90;;;;;;5113718;28;20211;-71
2022/07/20 06:23:45;;;;;;;7.22;4.40;;;24.60;99.90;;;;;;5101232;28;20191;-71
2022/07/20 06:26:10;;;;;;;5.50;3.80;;;24.70;99.90;;;;;;5093779;28;20177;-71
2022/07/20 06:28:36;;;;;;;8.10;3.88;;;24.80;99.90;;;;;;5091779;28;20204;-71
2022/07/20 06:31:03;;;;;;;9.55;4.05;;;25.00;99.90;;;;;;5093734;28;20228;-71
2022/07/20 06:33:29;;;;;;;7.47;3.95;;;25.10;99.90;;;;;;5093222;28;20169;-71
2022/07/20 06:35:55;;;;;;;6.95;4.00;;;25.30;99.90;;;;;;5093534;28;20201;-70
2022/07/20 06:38:20;;;;;;;6.70;3.97;;;25.70;99.90;;;;;;5091906;28;20179;-71
2022/07/20 06:40:46;;;;;;;8.00;4.07;;;25.90;99.90;;;;;;5093759;28;20219;-71
2022/07/20 06:43:12;;;;;;;7.93;4.18;;;26.10;99.90;;;;;;5093528;28;20169;-71
2022/07/20 06:45:38;;;;;;;12.40;5.13;;;26.30;99.90;;;;;;5093943;28;20580;-70
2022/07/20 06:48:04;;;;;;;13.15;4.47;;;26.60;99.90;;;;;;5093159;28;20177;-71
2022/07/20 06:50:30;;;;;;;6.32;3.80;;;26.90;99.90;;;;;;5093194;28;20256;-70
2022/07/20 06:52:55;;;;;;;6.72;4.03;;;27.20;99.90;;;;;;5092959;28;20197;-70
2022/07/20 06:55:22;;;;;;;7.28;4.38;;;27.50;99.90;;;;;;5093006;28;20201;-70
2022/07/20 06:57:48;;;;;;;7.00;3.75;;;27.80;99.90;;;;;;5093033;28;20174;-70
2022/07/20 07:00:14;;;;;;;6.22;3.97;;;28.00;99.90;;;;;;5092979;28;20165;-70
2022/07/20 07:02:40;;;;;;;7.80;4.22;;;28.00;99.90;;;;;;5091577;28;20243;-70
2022/07/20 07:05:07;;;;;;;6.18;3.85;;;28.10;99.80;;;;;;5093055;28;20227;-70
2022/07/20 07:07:33;;;;;;;5.25;3.75;;;28.10;99.80;;;;;;5092889;28;20196;-70
2022/07/20 07:09:59;;;;;;;12.30;4.55;;;28.10;99.90;;;;;;5092817;28;20587;-70
2022/07/20 07:12:24;;;;;;;8.63;4.25;;;28.10;99.50;;;;;;5092894;28;20292;-70
2022/07/20 07:14:50;;;;;;;7.80;3.95;;;28.20;99.90;;;;;;5092620;28;20169;-70
2022/07/20 07:17:16;;;;;;;7.85;4.30;;;28.20;99.90;;;;;;5094879;28;20176;-71
2022/07/20 07:19:42;;;;;;;10.77;3.95;;;28.30;99.40;;;;;;5096839;28;20178;-70
2022/07/20 07:22:08;;;;;;;7.35;4.25;;;28.40;99.30;;;;;;5096444;28;20271;-70
2022/07/20 07:24:34;;;;;;;8.95;4.05;;;28.50;99.50;;;;;;5096439;28;20626;-70
2022/07/20 07:27:00;;;;;;;6.43;4.40;;;28.50;99.10;;;;;;5095121;28;20192;-70
2022/07/20 07:29:26;;;;;;;11.63;4.03;;;28.60;98.60;;;;;;5096182;28;20169;-71
2022/07/20 07:31:58;;;;;;;6.78;3.83;;;28.80;98.70;;;;;;5096235;28;20197;-70
2022/07/20 07:34:27;;;;;;;5.75;3.88;;;28.80;98.00;;;;;;5096549;28;20168;-71
2022/07/20 07:36:54;;;;;;;8.02;3.95;;;28.90;97.60;;;;;;5096476;28;20201;-71
2022/07/20 07:39:19;;;;;;;9.05;4.07;;;28.90;97.80;;;;;;5096422;28;20248;-71
2022/07/20 07:41:45;;;;;;;5.88;4.03;;;29.00;97.30;;;;;;5097806;28;20266;-71
2022/07/20 07:44:11;;;;;;;12.63;4.13;;;28.90;98.30;;;;;;5095918;28;20619;-71
2022/07/20 07:46:37;;;;;;;11.07;4.25;;;29.00;97.90;;;;;;5095592;28;20181;-71
2022/07/20 07:49:03;;;;;;;7.25;4.50;;;29.00;98.30;;;;;;5096384;28;20177;-71
2022/07/20 07:51:29;;;;;;;10.70;4.50;;;29.00;99.20;;;;;;5097223;28;20280;-71
2022/07/20 07:53:57;;;;;;;8.07;4.85;;;29.00;98.10;;;;;;5096095;28;20212;-70
2022/07/20 07:56:23;;;;;;;10.27;5.22;;;28.90;98.80;;;;;;5094550;28;20266;-70
2022/07/20 07:58:49;;;;;;;7.80;4.93;;;28.90;99.80;;;;;;5094661;28;20633;-71
2022/07/20 08:01:14;;;;;;;12.30;5.63;;;28.80;99.70;;;;;;5096170;28;20193;-71
2022/07/20 08:03:40;;;;;;;13.57;6.22;;;28.80;99.70;;;;;;5096299;28;20176;-71
2022/07/20 08:06:06;;;;;;;8.57;6.07;;;28.70;99.10;;;;;;5095571;28;20177;-70
2022/07/20 08:08:32;;;;;;;9.07;6.35;;;28.60;98.90;;;;;;5094429;28;20180;-71
2022/07/20 08:10:59;;;;;;;13.05;7.07;;;28.50;99.70;;;;;;5094458;28;20813;-71
2022/07/20 08:13:25;;;;;;;12.63;7.78;;;28.40;99.90;;;;;;5095278;28;20204;-71
2022/07/20 08:15:50;;;;;;;11.82;8.38;;;28.50;99.90;;;;;;5095388;28;20250;-71
2022/07/20 08:18:16;;;;;;;15.23;9.73;;;28.50;99.90;;;;;;5095425;28;20310;-71
2022/07/20 08:20:43;;;;;;;19.33;11.50;;;28.40;99.90;;;;;;5095828;28;20575;-71
2022/07/20 08:23:08;;;;;;;21.58;11.85;;;28.40;99.90;;;;;;5094072;28;20195;-71
2022/07/20 08:25:34;;;;;;;17.52;11.85;;;28.30;99.90;;;;;;5095627;28;20652;-71
2022/07/20 08:28:18;;;;;;;16.70;12.48;;;28.30;99.90;;;;;;5094740;28;20179;-71
2022/07/20 08:30:46;;;;;;;22.58;13.40;;;28.10;99.90;;;;;;5095196;28;20169;-71
2022/07/20 08:33:12;;;;;;;26.40;14.25;;;28.10;99.90;;;;;;5095005;28;20669;-71
2022/07/20 08:35:38;;;;;;;26.67;13.90;;;28.10;99.90;;;;;;5094943;28;20266;-71
2022/07/20 08:38:05;;;;;;;18.88;14.25;;;28.00;99.90;;;;;;5095340;28;20197;-71
2022/07/20 08:40:32;;;;;;;21.33;14.27;;;28.10;99.90;;;;;;5095212;28;20208;-69
2022/07/20 08:42:58;;;;;;;18.20;14.10;;;28.10;99.90;;;;;;5095155;28;20276;-69
2022/07/20 08:45:25;;;;;;;20.90;15.20;;;28.10;99.90;;;;;;5094319;28;20176;-71
2022/07/20 08:47:51;;;;;;;23.25;16.13;;;28.10;99.90;;;;;;5095421;28;20252;-69
2022/07/20 08:50:27;;;;;;;24.67;16.25;;;28.20;99.90;;;;;;5093789;28;20219;-71
2022/07/20 08:52:53;;;;;;;22.33;15.73;;;28.10;99.90;;;;;;5095821;28;20704;-72
2022/07/20 08:55:19;;;;;;;26.80;17.55;;;28.10;99.90;;;;;;5096923;28;20234;-70
2022/07/20 08:57:46;;;;;;;22.15;15.98;;;28.10;99.90;;;;;;5095951;28;20176;-72
2022/07/20 09:00:13;;;;;;;26.00;18.08;;;28.10;99.90;;;;;;5094849;28;20222;-71
2022/07/20 09:03:01;;;;;;;21.52;16.67;;;28.10;99.90;;;;;;5096274;28;20189;-70
2022/07/20 09:05:28;;;;;;;21.00;16.38;;;28.20;99.90;;;;;;5095373;28;20170;-70
2022/07/20 09:07:57;;;;;;;24.30;17.48;;;28.20;99.90;;;;;;5093781;28;20650;-70
2022/07/20 09:10:34;;;;;;;30.13;18.33;;;28.10;99.90;;;;;;5094431;28;20680;-70
2022/07/20 09:13:14;;;;;;;26.90;19.38;;;28.00;99.90;;;;;;5095364;28;20192;-72
2022/07/20 09:15:42;;;;;;;28.33;19.65;;;28.10;99.90;;;;;;5095313;28;20185;-69
2022/07/20 09:18:25;;;;;;;24.27;18.20;;;28.30;99.90;;;;;;5094837;28;20184;-72
2022/07/20 09:20:58;;;;;;;25.70;19.05;;;28.40;99.90;;;;;;5094458;28;20160;-72
2022/07/20 09:23:27;;;;;;;25.33;17.55;;;28.50;99.90;;;;;;5092818;28;20177;-72
2022/07/20 09:25:59;;;;;;;26.80;19.08;;;28.60;99.90;;;;;;5094143;28;20192;-72
2022/07/20 09:28:38;;;;;;;26.98;19.48;;;28.90;99.90;;;;;;5092664;28;20166;-72
2022/07/20 09:31:11;;;;;;;23.90;17.73;;;29.00;99.90;;;;;;5094535;28;20193;-72
2022/07/20 09:33:37;;;;;;;26.95;18.08;;;29.20;99.90;;;;;;5093243;28;20242;-72
2022/07/20 09:36:04;;;;;;;26.83;18.77;;;29.30;99.90;;;;;;5093873;28;20236;-72
2022/07/20 09:38:38;;;;;;;22.42;17.85;;;29.30;99.90;;;;;;5094685;28;20180;-72
2022/07/20 09:41:19;;;;;;;25.58;18.00;;;29.40;99.90;;;;;;5092596;28;20192;-72
2022/07/20 09:43:45;;;;;;;26.73;19.20;;;29.60;99.90;;;;;;5093720;28;20164;-72
2022/07/20 09:46:16;;;;;;;25.52;17.90;;;29.60;99.90;;;;;;5093886;28;20173;-72
2022/07/20 09:48:42;;;;;;;23.83;17.35;;;29.80;99.90;;;;;;5094195;28;20248;-72
2022/07/20 09:51:27;;;;;;;24.00;17.80;;;29.80;99.90;;;;;;5093147;28;20232;-72
2022/07/20 09:54:05;;;;;;;23.17;18.92;;;30.00;99.90;;;;;;5094746;28;20176;-72
2022/07/20 09:56:32;;;;;;;27.10;18.65;;;29.90;99.90;;;;;;5094639;28;20189;-72
2022/07/20 09:59:00;;;;;;;26.55;18.60;;;29.80;99.90;;;;;;5093913;28;20219;-72
2022/07/20 10:01:28;;;;;;;22.70;17.95;;;29.80;99.90;;;;;;5093724;28;20197;-72
2022/07/20 10:03:56;;;;;;;54.83;21.50;;;29.80;99.90;;;;;;5093643;28;20153;-72
2022/07/20 10:06:25;;;;;;;29.05;18.63;;;29.80;99.90;;;;;;5092411;28;20181;-72
2022/07/20 10:08:51;;;;;;;21.17;17.08;;;30.00;99.90;;;;;;5094008;28;20653;-72
2022/07/20 10:11:19;;;;;;;25.33;18.17;;;30.20;99.90;;;;;;5093655;28;20197;-72
2022/07/20 10:13:48;;;;;;;24.67;18.33;;;30.20;99.90;;;;;;5093329;28;20254;-73
2022/07/20 10:16:35;;;;;;;25.58;17.20;;;30.30;99.90;;;;;;5093548;28;20259;-72
2022/07/20 10:19:01;;;;;;;24.40;16.73;;;30.40;99.90;;;;;;5093701;28;20192;-72
2022/07/20 10:21:48;;;;;;;25.08;17.58;;;30.50;99.90;;;;;;5093401;28;20189;-72
2022/07/20 10:24:21;;;;;;;24.23;17.73;;;30.60;99.90;;;;;;5093361;28;20180;-72
2022/07/20 10:26:52;;;;;;;28.50;18.08;;;30.50;99.90;;;;;;5092312;28;20719;-72
2022/07/20 10:29:44;;;;;;;21.98;16.98;;;30.40;99.90;;;;;;5093467;28;20630;-72
2022/07/20 10:32:10;;;;;;;25.75;16.38;;;30.40;99.90;;;;;;5093124;28;20602;-72
2022/07/20 10:34:54;;;;;;;21.83;16.45;;;30.30;99.90;;;;;;5093509;28;20177;-72
2022/07/20 10:37:40;;;;;;;23.15;16.40;;;30.30;99.90;;;;;;5093427;28;20185;-72
2022/07/20 10:40:09;;;;;;;25.15;17.90;;;30.40;99.90;;;;;;5093657;28;20154;-72
2022/07/20 10:42:58;;;;;;;29.60;17.40;;;30.50;99.90;;;;;;5093362;28;20193;-72
2022/07/20 10:45:25;;;;;;;22.92;17.00;;;30.60;99.90;;;;;;5093199;28;20165;-72
2022/07/20 10:47:53;;;;;;;23.15;16.08;;;30.60;99.90;;;;;;5093386;28;20642;-72
2022/07/20 10:50:20;;;;;;;22.55;15.90;;;30.70;99.90;;;;;;5093895;28;20177;-70
2022/07/20 10:52:48;;;;;;;18.48;15.30;;;30.70;99.90;;;;;;5097831;28;20204;-70
2022/07/20 10:55:35;;;;;;;21.10;16.33;;;30.80;99.90;;;;;;5117712;28;20173;-70
2022/07/20 10:58:05;;;;;;;23.20;15.63;;;31.00;99.90;;;;;;5116139;28;20177;-70
2022/07/20 11:00:35;;;;;;;22.92;15.07;;;31.00;99.90;;;;;;5117437;28;20171;-70
2022/07/20 11:03:03;;;;;;;24.40;15.75;;;30.90;99.90;;;;;;5117141;28;20265;-71
2022/07/20 11:05:28;;;;;;;23.42;16.77;;;30.90;99.90;;;;;;5117427;28;20176;-70
2022/07/20 11:07:54;;;;;;;20.52;14.57;;;30.80;99.90;;;;;;5117831;28;20586;-70
2022/07/20 11:10:26;;;;;;;30.95;16.33;;;30.90;99.90;;;;;;5115834;28;20176;-70
2022/07/20 11:12:57;;;;;;;20.60;15.25;;;30.80;99.90;;;;;;5117188;28;20188;-70
2022/07/20 11:15:23;;;;;;;24.40;16.15;;;30.90;99.90;;;;;;5116971;28;20192;-70
2022/07/20 11:17:52;;;;;;;17.73;13.90;;;30.90;99.90;;;;;;5115797;28;20184;-70
2022/07/20 11:20:18;;;;;;;18.00;13.82;;;30.90;99.90;;;;;;5115613;28;20182;-70
2022/07/20 11:22:44;;;;;;;21.55;14.23;;;31.10;99.90;;;;;;5114539;28;20279;-70
2022/07/20 11:25:10;;;;;;;21.10;14.27;;;31.20;99.90;;;;;;5097250;28;20222;-70
2022/07/20 11:27:36;;;;;;;20.83;14.75;;;31.40;99.90;;;;;;5096793;28;20153;-70
2022/07/20 11:30:02;;;;;;;19.60;14.85;;;31.60;99.60;;;;;;5096404;28;20177;-70
2022/07/20 11:32:28;;;;;;;19.95;16.00;;;31.70;99.90;;;;;;5096749;28;20193;-70
2022/07/20 11:34:54;;;;;;;20.58;14.82;;;31.60;99.30;;;;;;5097205;28;20176;-70
2022/07/20 11:37:21;;;;;;;19.92;15.27;;;31.70;99.90;;;;;;5095247;28;20205;-70
2022/07/20 11:39:47;;;;;;;20.70;15.15;;;31.90;99.70;;;;;;5096812;28;20189;-70
2022/07/20 11:42:15;;;;;;;20.20;15.13;;;31.90;99.90;;;;;;5096227;28;20579;-70
2022/07/20 11:45:01;;;;;;;18.73;15.15;;;31.90;99.90;;;;;;5094739;28;20173;-71
2022/07/20 11:47:27;;;;;;;20.48;15.02;;;32.10;99.40;;;;;;5094844;28;20192;-70
2022/07/20 11:50:08;;;;;;;23.23;14.45;;;32.00;98.80;;;;;;5094955;28;20170;-70
2022/07/20 11:52:41;;;;;;;21.85;14.68;;;31.80;99.40;;;;;;5096040;28;20212;-71
2022/07/20 11:55:08;;;;;;;20.48;14.05;;;32.20;99.30;;;;;;5096245;28;20153;-71
2022/07/20 11:57:35;;;;;;;17.55;13.63;;;32.00;98.80;;;;;;5096221;28;20169;-70
2022/07/20 12:00:01;;;;;;;18.38;12.10;;;32.00;98.80;;;;;;5094442;28;20180;-71
2022/07/20 12:02:27;;;;;;;22.83;13.65;;;32.20;99.10;;;;;;5095634;28;20185;-71
2022/07/20 12:04:53;;;;;;;19.23;13.45;;;32.70;98.80;;;;;;5095972;28;20218;-72
2022/07/20 12:10:23;;;;;;;16.73;13.20;;;32.90;98.00;;;;;;5096014;28;20189;-71
2022/07/20 12:13:04;;;;;;;18.35;14.52;;;32.70;98.00;;;;;;5095729;28;20193;-73
2022/07/20 12:15:31;;;;;;;16.55;13.15;;;32.60;97.70;;;;;;5095751;28;20189;-72
2022/07/20 12:17:57;;;;;;;20.17;14.35;;;32.50;98.80;;;;;;5094144;28;20193;-73
2022/07/20 12:20:24;;;;;;;20.40;13.35;;;32.70;98.00;;;;;;5094075;28;20200;-73
2022/07/20 12:22:55;;;;;;;18.77;14.50;;;32.80;98.50;;;;;;5095341;28;20204;-72
2022/07/20 12:25:22;;;;;;;20.35;13.77;;;32.90;98.40;;;;;;5095904;28;20165;-72
2022/07/20 12:27:49;;;;;;;23.42;13.95;;;32.80;97.60;;;;;;5093971;28;20177;-73
2022/07/20 12:30:24;;;;;;;22.02;13.95;;;32.70;98.00;;;;;;5094905;28;20250;-72
2022/07/20 12:33:05;;;;;;;18.63;13.98;;;33.10;98.40;;;;;;5095063;28;20214;-74
2022/07/20 12:35:31;;;;;;;20.70;13.20;;;33.10;97.90;;;;;;5094038;28;20345;-73
2022/07/20 12:37:57;;;;;;;33.22;14.75;;;33.00;97.50;;;;;;5095162;28;20256;-74
2022/07/20 12:40:44;;;;;;;16.90;12.70;;;32.70;97.20;;;;;;5095151;28;20180;-75
2022/07/20 12:43:29;;;;;;;21.27;12.90;;;32.70;97.20;;;;;;5095651;28;20169;-75
2022/07/20 12:45:56;;;;;;;18.20;13.93;;;32.70;97.10;;;;;;5094953;28;20222;-76